Weather at Balcanoona Airport

Public forecast

Using degrees Celsius for public forecast. Weather courtesy of forecast.io.

Closest aviation weather report (METAR) to Balcanoona Airport

Closest report is Leigh Creek Airport, 47.2 nm (87.5 km) W. Retrieved 2021/09/25 04:00 UTC (59 minutes ago):

YLEC 250400Z AUTO 23006KT 190V260 9999 // NCD 22/01 Q1020

Closest aviation forecast (TAF) to Balcanoona Airport

Forecast is more than 6 hours old.

Closest forecast is Woomera Airfield, 135.0 nm (249.9 km) WSW. Retrieved 2021/09/24 18:00 UTC (11 hours ago):

TAF YPWR 241730Z 2418/2512 17014KT CAVOK